OSDI/DAM METAR and TAF weather

Enter ICAO airport designator
Station Type Date Time Source
OSDI METAR 2020/08/06 01:00 UTC NOAA

OSDI 060100Z 22014KT CAVOK 21/17 Q1007


Station Type Date Time Source
OSDI Decoded METAR 2020/08/06 01:00 UTC NOAA

Damascus Int. Airport, Syria (OSDI) 33-25N 036-31E 609M
Aug 05, 2020 - 09:00 PM EDT / 2020.08.06 0100 UTC
Wind: from the SW (220 degrees) at 16 MPH (14 KT):0
Visibility: greater than 7 mile(s):0
Temperature: 69 F (21 C)
Dew Point: 62 F (17 C)
Relative Humidity: 77%
Pressure (altimeter): 29.74 in. Hg (1007 hPa)
ob: OSDI 060100Z 22014KT CAVOK 21/17 Q1007
cycle: 1

Station Type Date Time Source
OSDI TAF 2020/08/05 18:57 UTC NOAA

TAF TAF OSDI 051600Z 0518/0624 22010KT CAVOK
TEMPO 0612/0618 24015G25KT 9999 FEW030

Example: see airport list